Latest Weather Observations for Territory Grape Farm

IDD60801

Issued at 7:35 am CST Saturday 30 August 2014 (issued every 30 minutes, with the page automatically refreshed every 10 minutes)

About weather observations | Map of weather stations | Latest weather observations for NT | Other Formats
Station Details ID: 015643 Name: TERRITORY GRAPE FARM Lat: -22.45 Lon: 133.64 Height: 565.6 m
Data from the previous 72 hours. | See also: Recent months at Territory Grape Farm
Date/Time
CST
Temp
°C
App
Temp
°C
Dew
Point
Rel
Hum
%
Delta-T
°C
Wind Press
QNH
hPa
Press
MSL
hPa
Rain
since 9 am
mm
Dir
 
Spd
km/h
Gust
km/h
Spd
kts
Gust
kts
30/07:30am 9.2 5.7 -3.0 42 4.7 SSE 6 7 3 4 1022.9 1021.6 0.0
30/07:00am 7.4 3.9 -3.2 47 4.0 SSE 6 6 3 3 1022.7 1021.4 0.0
30/06:30am 8.0 4.3 -2.6 47 4.0 SE 7 9 4 5 1022.4 1021.1 0.0
30/06:00am 6.6 3.0 -3.6 48 3.7 ESE 6 7 3 4 1022.0 1020.7 0.0
30/05:30am 7.3 3.6 -3.2 47 3.9 SE 7 9 4 5 1021.7 1020.5 0.0
30/05:00am 7.4 3.2 -4.0 44 4.2 ESE 9 9 5 5 1021.4 1020.1 0.0
30/04:30am 8.7 4.5 -3.5 42 4.6 SE 9 11 5 6 1021.5 1020.2 0.0
30/04:00am 8.4 3.8 -4.1 41 4.6 ESE 11 13 6 7 1021.4 1020.1 0.0
30/03:30am 9.7 5.9 -3.6 39 5.1 SE 7 9 4 5 1021.4 1020.1 0.0
30/03:00am 10.2 6.4 -3.8 37 5.3 SSE 7 9 4 5 1021.5 1020.2 0.0
30/02:30am 10.2 6.4 -3.8 37 5.3 SE 7 9 4 5 1021.5 1020.2 0.0
30/02:00am 10.5 5.9 -3.9 36 5.5 SE 11 13 6 7 1021.5 1020.2 0.0
30/01:30am 11.1 6.9 -4.1 34 5.8 SSE 9 13 5 7 1021.5 1020.2 0.0
30/01:00am 11.7 7.4 -4.4 32 6.2 SSE 9 11 5 6 1021.8 1020.6 0.0
30/12:30am 11.6 7.0 -3.7 34 5.9 SE 11 11 6 6 1021.8 1020.6 0.0
30/12:00am 11.3 6.7 -4.0 34 5.9 ESE 11 13 6 7 1021.6 1020.4 0.0
 
Date/Time
CST
Temp
°C
App
Temp
°C
Dew
Point
Rel
Hum
%
Delta-T
°C
Wind Press
QNH
hPa
Press
MSL
hPa
Rain
since 9 am
mm
Dir
 
Spd
km/h
Gust
km/h
Spd
kts
Gust
kts
29/11:30pm 11.0 6.4 -4.2 34 5.8 E 11 13 6 7 1021.8 1020.6 0.0
29/11:00pm 11.4 7.5 -4.7 32 6.1 ESE 7 9 4 5 1022.0 1020.7 0.0
29/10:30pm 13.2 8.6 -4.0 30 6.7 SE 11 13 6 7 1022.1 1020.8 0.0
29/10:00pm 13.1 8.5 -4.1 30 6.7 ESE 11 13 6 7 1021.8 1020.6 0.0
29/09:30pm 14.0 9.4 -3.7 29 7.0 E 11 11 6 6 1021.5 1020.2 0.0
29/09:00pm 14.4 9.4 -3.9 28 7.3 E 13 15 7 8 1021.2 1019.9 0.0
29/08:30pm 14.9 10.7 -3.9 27 7.5 E 9 11 5 6 1021.1 1019.8 0.0
29/08:00pm 15.8 11.6 -3.6 26 7.9 E 9 11 5 6 1020.9 1019.6 0.0
29/07:30pm 16.9 12.3 -3.8 24 8.5 E 11 13 6 7 1020.6 1019.3 0.0
29/07:00pm 18.9 14.6 -4.5 20 9.6 E 9 11 5 6 1020.4 1019.1 0.0
29/06:30pm 21.3 16.6 -4.7 17 10.9 E 11 13 6 7 1019.9 1018.6 0.0
29/06:00pm 23.5 18.2 -3.7 16 11.8 ESE 15 22 8 12 1019.6 1018.3 0.0
29/05:30pm 24.4 19.1 -3.9 15 12.4 E 15 24 8 13 1019.4 1018.1 0.0
29/05:00pm 24.7 20.2 -3.6 15 12.5 ESE 11 20 6 11 1019.3 1018.0 0.0
29/04:30pm 24.9 20.4 -3.5 15 12.6 E 11 19 6 10 1019.3 1018.0 0.0
29/04:00pm 24.9 19.9 -4.4 14 12.8 ENE 13 24 7 13 1019.4 1018.1 0.0
29/03:30pm 25.2 19.9 -3.2 15 12.7 ENE 15 24 8 13 1019.6 1018.3 0.0
29/03:00pm 25.0 20.2 -2.5 16 12.4 ESE 13 20 7 11 1020.1 1018.8 0.0
29/02:30pm 25.1 19.5 -2.5 16 12.5 ESE 17 32 9 17 1020.5 1019.2 0.0
29/02:00pm 24.3 19.4 -3.1 16 12.2 ESE 13 24 7 13 1021.0 1019.7 0.0
29/01:30pm 24.6 19.2 -1.3 18 11.9 ESE 17 24 9 13 1021.5 1020.2 0.0
29/01:00pm 24.0 19.0 -1.0 19 11.5 E 15 28 8 15 1022.2 1020.9 0.0
29/12:30pm 23.9 18.6 -0.4 20 11.3 ENE 17 30 9 16 1022.8 1021.5 0.0
29/12:00pm 23.1 17.3 -0.4 21 10.8 E 20 30 11 16 1023.4 1022.2 0.0
29/11:30am 23.0 18.5 -0.5 21 10.8 E 13 22 7 12 1024.0 1022.7 0.0
29/11:00am 22.2 17.0 0.1 23 10.3 E 17 28 9 15 1024.3 1023.0 0.0
29/10:30am 21.8 16.1 0.4 24 9.9 E 20 33 11 18 1024.6 1023.3 0.0
29/10:00am 21.1 15.6 0.9 26 9.4 E 19 28 10 15 1024.6 1023.3 0.0
29/09:30am 19.7 13.7 1.2 29 8.6 E 22 28 12 15 1024.7 1023.5 0.0
29/09:00am 18.2 11.9 1.3 32 7.7 ESE 24 33 13 18 1024.7 1023.5 0.0
29/08:30am 16.9 12.3 1.4 35 7.0 SE 15 26 8 14 1024.4 1023.1 0.0
29/08:00am 13.2 9.6 0.3 41 5.6 SSE 9 15 5 8 1024.3 1023.0 0.0
29/07:30am 10.3 6.5 -0.5 47 4.4 SSE 9 13 5 7 1024.1 1022.8 0.0
29/07:00am 9.0 4.8 -0.9 50 4.0 SSE 11 13 6 7 1023.9 1022.6 0.0
29/06:30am 8.7 4.1 -1.1 50 3.9 SSE 13 15 7 8 1023.6 1022.4 0.0
29/06:00am 9.1 4.8 -1.3 48 4.1 S 11 15 6 8 1023.5 1022.3 0.0
29/05:30am 9.4 5.1 -1.6 46 4.4 S 11 13 6 7 1023.1 1021.9 0.0
29/05:00am 10.0 6.5 -1.4 45 4.6 S 7 11 4 6 1022.9 1021.6 0.0
29/04:30am 10.2 6.3 -1.2 45 4.6 SSE 9 9 5 5 1022.6 1021.3 0.0
29/04:00am 9.2 5.3 -1.5 47 4.3 SE 9 11 5 6 1022.5 1021.2 0.0
29/03:30am 9.3 5.3 -2.0 45 4.4 SE 9 11 5 6 1022.5 1021.2 0.0
29/03:00am 10.3 5.9 -2.4 41 5.0 SE 11 11 6 6 1022.3 1021.0 0.0
29/02:30am 11.7 7.4 -1.4 40 5.3 SE 11 11 6 6 1022.6 1021.3 0.0
29/02:00am 9.6 5.0 -4.0 38 5.1 ESE 11 11 6 6 1022.6 1021.3 0.0
29/01:30am 9.3 5.5 -3.9 39 5.0 SE 7 9 4 5 1022.6 1021.3 0.0
29/01:00am 11.2 7.0 -3.7 35 5.8 SSE 9 11 5 6 1022.8 1021.5 0.0
29/12:30am 11.5 6.9 -3.8 34 5.9 SE 11 13 6 7 1023.0 1021.7 0.0
29/12:00am 12.8 8.3 -3.5 32 6.4 SE 11 11 6 6 1022.9 1021.6 0.0
 
Date/Time
CST
Temp
°C
App
Temp
°C
Dew
Point
Rel
Hum
%
Delta-T
°C
Wind Press
QNH
hPa
Press
MSL
hPa
Rain
since 9 am
mm
Dir
 
Spd
km/h
Gust
km/h
Spd
kts
Gust
kts
28/11:30pm 12.2 7.7 -3.6 33 6.2 ESE 11 13 6 7 1022.9 1021.6 0.0
28/11:00pm 13.3 8.7 -3.9 30 6.8 ESE 11 13 6 7 1022.9 1021.6 0.0
28/10:30pm 14.2 9.2 -4.0 28 7.2 ESE 13 15 7 8 1023.0 1021.7 0.0
28/10:00pm 15.1 10.2 -3.7 27 7.6 ESE 13 17 7 9 1022.9 1021.6 0.0
28/09:30pm 14.0 9.3 -5.2 26 7.4 ESE 11 13 6 7 1022.8 1021.5 0.0
28/09:00pm 15.6 10.5 -4.9 24 8.1 SE 13 17 7 9 1022.6 1021.3 0.0
28/08:30pm 16.1 11.0 -5.0 23 8.3 SE 13 17 7 9 1022.4 1021.1 0.0
28/08:00pm 15.2 10.8 -5.8 23 8.1 E 9 9 5 5 1022.2 1020.9 0.0
28/07:30pm 16.3 11.5 -6.0 21 8.6 E 11 11 6 6 1021.7 1020.5 0.0
28/07:00pm 18.2 13.4 -5.8 19 9.6 E 11 13 6 7 1021.4 1020.1 0.0
28/06:30pm 20.8 16.0 -5.9 16 10.9 E 11 15 6 8 1021.1 1019.8 0.0
28/06:00pm 22.9 17.3 -6.9 13 12.1 E 15 20 8 11 1020.8 1019.5 0.0
28/05:30pm 23.9 18.7 -6.2 13 12.5 E 13 20 7 11 1020.6 1019.3 0.0
28/05:00pm 24.3 18.3 -6.9 12 12.9 E 17 26 9 14 1020.6 1019.3 0.0
28/04:30pm 24.2 18.5 -7.0 12 12.8 SE 15 24 8 13 1020.6 1019.3 0.0
28/04:00pm 24.5 19.3 -6.7 12 13.0 ESE 13 26 7 14 1020.7 1019.4 0.0
28/03:30pm 24.5 18.8 -7.9 11 13.1 E 15 22 8 12 1020.9 1019.6 0.0
28/03:00pm 24.5 18.5 -6.7 12 12.9 E 17 26 9 14 1021.1 1019.8 0.0
28/02:30pm 24.1 19.3 -6.0 13 12.6 E 11 22 6 12 1021.4 1020.1 0.0
28/02:00pm 24.1 18.2 -6.0 13 12.7 ESE 17 26 9 14 1021.8 1020.6 0.0
28/01:30pm 23.9 18.0 -5.2 14 12.3 ENE 17 28 9 15 1022.4 1021.1 0.0
28/01:00pm 23.4 17.9 -5.6 14 12.2 E 15 26 8 14 1023.0 1021.7 0.0
28/12:30pm 22.9 17.1 -4.2 16 11.6 E 17 33 9 18 1023.4 1022.2 0.0
28/12:00pm 22.2 16.1 -4.0 17 11.2 E 19 28 10 15 1023.9 1022.6 0.0
28/11:30am 21.4 15.1 -3.9 18 10.7 E 20 30 11 16 1024.3 1023.0 0.0
28/11:00am 21.5 15.6 -2.4 20 10.5 E 19 30 10 16 1024.6 1023.3 0.0
28/10:30am 19.8 12.9 -2.5 22 9.6 E 24 35 13 19 1024.8 1023.6 0.0
28/10:00am 19.7 12.9 -2.0 23 9.5 E 24 37 13 20 1024.8 1023.6 0.0
28/09:30am 18.3 11.9 -2.0 25 8.7 E 22 39 12 21 1024.8 1023.6 0.0
28/09:00am 16.4 9.6 -2.1 28 7.8 E 24 30 13 16 1024.7 1023.5 0.0
28/08:30am 14.9 9.7 -3.0 29 7.3 ESE 15 20 8 11 1024.7 1023.5 0.0
28/08:00am 11.5 7.6 -4.2 33 6.0 SE 7 9 4 5 1024.4 1023.1 0.0
28/07:30am 8.3 4.3 -5.5 37 4.9 SE 7 9 4 5 1024.1 1022.8 0.0
28/07:00am 7.5 3.1 -5.9 38 4.7 SSE 9 11 5 6 1023.8 1022.5 0.0
28/06:30am 8.1 3.7 -5.7 37 4.9 SSE 9 13 5 7 1023.4 1022.2 0.0
28/06:00am 7.5 2.8 -5.2 40 4.5 SE 11 13 6 7 1023.1 1021.9 0.0
28/05:30am 7.3 2.9 -5.7 39 4.6 SE 9 11 5 6 1022.8 1021.5 0.0
28/05:00am 7.6 3.5 -6.9 35 5.0 SSE 7 7 4 4 1022.7 1021.4 0.0
28/04:30am 9.1 4.7 -5.9 34 5.4 SSE 9 13 5 7 1022.4 1021.1 0.0
28/04:00am 8.9 4.0 -6.9 32 5.5 SE 11 13 6 7 1022.1 1020.8 0.0
28/03:30am 8.2 3.6 -7.9 31 5.4 SE 9 11 5 6 1022.2 1020.9 0.0
28/03:00am 8.2 3.2 -8.7 29 5.6 SSE 11 13 6 7 1022.2 1020.9 0.0
28/02:30am 8.2 3.5 -9.7 27 5.8 SSE 9 13 5 7 1022.5 1021.2 0.0
28/02:00am 8.6 3.9 -9.8 26 6.0 SSE 9 13 5 7 1022.7 1021.4 0.0
28/01:30am 9.2 4.4 -10.3 24 6.3 SSE 9 13 5 7 1023.0 1021.7 0.0
28/01:00am 9.5 4.7 -10.6 23 6.5 SSE 9 13 5 7 1023.2 1022.0 0.0
28/12:30am 9.7 4.9 -11.0 22 6.6 SSE 9 11 5 6 1023.2 1022.0 0.0
28/12:00am 10.5 5.6 -11.5 20 7.0 SSE 9 13 5 7 1023.4 1022.2 0.0
 
Date/Time
CST
Temp
°C
App
Temp
°C
Dew
Point
Rel
Hum
%
Delta-T
°C
Wind Press
QNH
hPa
Press
MSL
hPa
Rain
since 9 am
mm
Dir
 
Spd
km/h
Gust
km/h
Spd
kts
Gust
kts
27/11:30pm 11.2 6.3 -12.2 18 7.4 SSE 9 11 5 6 1023.4 1022.2 0.0
27/11:00pm 12.1 6.8 -11.5 18 7.7 SE 11 11 6 6 1023.4 1022.2 0.0
27/10:30pm 11.9 7.1 -11.0 19 7.5 SE 9 9 5 5 1023.3 1022.1 0.0
27/10:00pm 12.4 7.2 -11.2 18 7.8 ESE 11 13 6 7 1023.3 1022.1 0.0
27/09:30pm 12.8 7.2 -11.6 17 8.0 E 13 15 7 8 1023.2 1022.0 0.0
27/09:00pm 12.4 7.1 -11.9 17 7.9 E 11 13 6 7 1023.0 1021.7 0.0
27/08:30pm 13.2 7.8 -13.7 14 8.5 E 11 13 6 7 1022.7 1021.4 0.0
27/08:00pm 14.8 9.4 -13.3 13 9.2 E 11 13 6 7 1022.2 1020.9 0.0
27/07:30pm 15.8 10.4 -14.6 11 9.8 ESE 11 15 6 8 1021.6 1020.4 0.0
27/07:00pm 17.9 12.9 -14.1 10 10.7 ESE 9 11 5 6 1021.1 1019.8 0.0
27/06:30pm 20.4 14.9 -14.9 8 12.0 E 11 13 6 7 1020.7 1019.4 0.0
27/06:00pm 23.1 17.7 -14.5 7 13.3 ESE 11 17 6 9 1020.4 1019.1 0.0
27/05:30pm 24.1 17.8 -15.7 6 13.9 ESE 15 26 8 14 1020.2 1018.9 0.0
27/05:00pm 24.7 18.5 -15.2 6 14.2 E 15 20 8 11 1020.2 1018.9 0.0
27/04:30pm 24.4 18.9 -15.5 6 14.1 SE 11 19 6 10 1020.2 1018.9 0.0
27/04:00pm 24.9 19.4 -15.1 6 14.3 ESE 11 19 6 10 1020.2 1018.9 0.0
27/03:30pm 25.2 19.7 -14.9 6 14.4 ESE 11 24 6 13 1020.4 1019.1 0.0
27/03:00pm 24.4 17.8 -15.5 6 14.1 E 17 26 9 14 1020.6 1019.3 0.0
27/02:30pm 24.2 17.6 -15.6 6 14.0 E 17 26 9 14 1020.8 1019.5 0.0
27/02:00pm 24.0 17.9 -12.2 8 13.5 E 15 24 8 13 1021.2 1019.9 0.0
27/01:30pm 23.1 17.3 -14.5 7 13.3 E 13 22 7 12 1021.7 1020.5 0.0
27/01:00pm 23.0 16.9 -13.0 8 13.1 E 15 24 8 13 1022.4 1021.1 0.0
27/12:30pm 22.6 16.9 -13.3 8 12.9 E 13 20 7 11 1022.8 1021.5 0.0
27/12:00pm 21.7 14.9 -12.5 9 12.3 E 19 28 10 15 1023.2 1022.0 0.0
27/11:30am 21.1 14.2 -13.0 9 12.1 ESE 19 26 10 14 1023.6 1022.4 0.0
27/11:00am 20.6 13.6 -12.0 10 11.8 E 20 28 11 15 1024.1 1022.8 0.0
27/10:30am 19.9 13.0 -10.3 12 11.1 E 20 30 11 16 1024.4 1023.1 0.0
27/10:00am 19.1 12.3 -9.9 13 10.7 E 20 26 11 14 1024.6 1023.3 0.0
27/09:30am 17.5 10.9 -9.4 15 9.8 E 19 22 10 12 1024.7 1023.5 0.0
27/09:00am 16.3 9.5 -8.8 17 9.1 E 20 28 11 15 1024.7 1023.5 0.0
27/08:30am 14.4 9.3 -9.6 18 8.4 E 11 15 6 8 1024.4 1023.1 0.0
27/08:00am 9.9 5.5 -10.8 22 6.7 ESE 7 9 4 5 1024.1 1022.8 0.0

Other Formats:

Comma delimited format used in spreadsheet applications
http://www.bom.gov.au/fwo/IDD60801/IDD60801.94328.axf

JavaScript Object Notation format (JSON) in row-major order
http://www.bom.gov.au/fwo/IDD60801/IDD60801.94328.json